CSG3 weather

Joliette Airport
Joliette, Quebec, Canada

Public forecast

Using degrees Celsius for public forecast. Weather courtesy of forecast.io.

Closest aviation weather report (METAR) to Joliette Airport

Closest report is Montreal International (Mirabel) Airport, 31.4 nm (58.1 km) SW. Retrieved 2020/02/28 18:00 UTC (14 minutes ago):

CYMX 281800Z 25011G21KT 220V290 15SM DRSN BKN027 OVC050 M10/M16 A2957 RMK SC6SC2 OCNL -SHSN CVCTV CLDS EMBD SLP021

Closest aviation forecast (TAF) to Joliette Airport

Closest forecast is Montreal International (Mirabel) Airport, 31.4 nm (58.1 km) SW. Retrieved 2020/02/28 18:42 UTC (0 seconds ago):

TAF TAF CYMX 281738Z 2818/2918 25012G22KT P6SM SCT020 BKN040 OVC080 TEMPO 2818/2824 5SM -SHSN DRSN BKN020 OVC040 BECMG 2820/2822 28008KT FM290000 30005KT P6SM BKN040 BKN080 TEMPO 2900/2915 P6SM -SN FM291500 26008KT P6SM -SHSN BKN020 BKN040 OVC080 FM291700 25008KT 5SM -SHSN OVC025 RMK NXT FCST BY 290000Z